Astor, Florida
Current Conditions -  °F | °C
As of 9:35 PM on Sunday 23 Nov 2014 (Local Time) from KDED Reporting Station
Clear Clear  
Wind Chill: 22°   Ceiling: Unl
Heat Index: 22°   Visibility: 10mi
Dew Point: 22°   Wind: 5mph
Humidity: 100%   Direction: 160°SSE
Pressure: 29.94"   Gusts: NA
Location:  29.15°N, 81.53°W
Report Text: KDED 240235Z AUTO 16004KT 10SM CLR 22/22 A2994 RMK AO1
Loading
Personal Weather Stations






























Interactive Weather Map New forecast layout! Learn more

10-Day Weather Forecast

Advertisements
Track Severe Weather on mobile